Time;durP1;ratioP1;P1;durP2;ratioP2;P2;SDS_P1;SDS_P2;PMS_P1;PMS_P2;Temp;Humidity;BMP_temperature;BMP_pressure;BME280_temperature;BME280_humidity;BME280_pressure;Samples;Min_cycle;Max_cycle;Signal;HPM_P1;HPM_P2
2022/10/08 00:00:59;;;;;;;;;;;;;;;17.54;64.80;100780.75;4999602;28;120226;-72
2022/10/08 00:03:26;;;;;;;;;;;;;;;17.51;65.22;100778.97;4998678;28;120786;-72
2022/10/08 00:05:55;;;;;;;;;;;;;;;17.46;65.34;100779.69;5008868;27;119547;-72
2022/10/08 00:08:20;;;;;;;;;;;;;;;17.42;65.84;100768.06;5002464;28;120129;-72
2022/10/08 00:10:50;;;;;;;;;;;;;;;17.38;66.05;100773.09;5004551;28;120011;-72
2022/10/08 00:13:16;;;;;;;;;;;;;;;17.35;66.15;100760.97;4991078;28;119948;-72
2022/10/08 00:15:42;;;;;;;;;;;;;;;17.32;66.39;100764.00;4999223;28;120194;-72
2022/10/08 00:18:07;;;;;;;;;;;;;;;17.29;66.37;100753.91;5004937;27;119643;-72
2022/10/08 00:20:33;;;;;;;;;;;;;;;17.26;66.70;100747.31;5007335;27;119606;-72
2022/10/08 00:23:05;;;;;;;;;;;;;;;17.25;66.95;100753.34;5004595;28;119920;-73
2022/10/08 00:25:31;;;;;;;;;;;;;;;17.21;67.01;100750.81;5005979;27;120308;-72
2022/10/08 00:27:56;;;;;;;;;;;;;;;17.18;67.17;100760.13;5021767;27;119951;-72
2022/10/08 00:30:22;;;;;;;;;;;;;;;17.14;67.06;100756.81;5005137;28;119980;-72
2022/10/08 00:32:47;;;;;;;;;;;;;;;17.12;67.38;100760.09;5003023;28;119495;-72
2022/10/08 00:35:13;;;;;;;;;;;;;;;17.12;67.20;100767.63;5008574;27;119333;-72
2022/10/08 00:37:39;;;;;;;;;;;;;;;17.12;67.63;100773.19;5011410;27;119662;-72
2022/10/08 00:40:04;;;;;;;;;;;;;;;17.11;67.79;100780.75;4999272;27;119685;-72
2022/10/08 00:42:30;;;;;;;;;;;;;;;17.11;67.75;100777.97;5004111;27;119857;-72
2022/10/08 00:44:57;;;;;;;;;;;;;;;17.07;67.90;100777.44;5001520;28;119631;-72
2022/10/08 00:47:29;;;;;;;;;;;;;;;17.08;68.05;100773.41;5000270;28;119671;-72
2022/10/08 00:49:57;;;;;;;;;;;;;;;17.08;67.94;100761.56;5002488;28;119982;-72
2022/10/08 00:52:26;;;;;;;;;;;;;;;17.08;68.22;100770.66;5004622;27;119984;-72
2022/10/08 00:54:51;;;;;;;;;;;;;;;17.08;68.23;100764.34;5006848;28;119619;-72
2022/10/08 00:57:20;;;;;;;;;;;;;;;17.07;68.27;100755.28;5007901;28;119874;-72
2022/10/08 00:59:46;;;;;;;;;;;;;;;17.09;68.36;100752.00;5004202;28;119667;-72
2022/10/08 01:02:12;;;;;;;;;;;;;;;17.07;68.26;100754.50;4995723;28;119810;-72
2022/10/08 01:04:38;;;;;;;;;;;;;;;17.05;68.37;100749.47;5003933;27;119872;-72
2022/10/08 01:07:10;;;;;;;;;;;;;;;17.02;68.50;100739.34;5008649;28;119724;-72
2022/10/08 01:09:38;;;;;;;;;;;;;;;17.02;68.42;100722.72;4986482;28;119894;-72
2022/10/08 01:12:07;;;;;;;;;;;;;;;17.01;68.38;100712.88;5002682;28;119558;-72
2022/10/08 01:14:51;;;;;;;;;;;;;;;17.00;68.42;100707.84;5004616;27;119643;-72
2022/10/08 01:17:23;;;;;;;;;;;;;;;16.97;68.35;100697.75;5009448;27;120240;-72
2022/10/08 01:19:57;;;;;;;;;;;;;;;16.95;68.65;100697.47;5023063;27;119888;-72
2022/10/08 01:22:28;;;;;;;;;;;;;;;16.93;68.56;100713.84;5006042;27;119483;-72
2022/10/08 01:27:51;;;;;;;;;;;;;;;16.93;68.89;100722.16;5008514;28;119528;-72
2022/10/08 01:30:18;;;;;;;;;;;;;;;16.94;69.00;100723.66;5004585;28;120690;-72
2022/10/08 01:32:47;;;;;;;;;;;;;;;16.95;69.08;100719.66;5001407;27;119964;-72
2022/10/08 01:35:19;;;;;;;;;;;;;;;16.94;69.26;100724.44;5018773;27;119339;-72
2022/10/08 01:37:45;;;;;;;;;;;;;;;16.97;69.13;100723.44;5014815;27;119393;-72
2022/10/08 01:40:17;;;;;;;;;;;;;;;16.97;69.02;100731.00;5007124;28;120096;-72
2022/10/08 01:42:43;;;;;;;;;;;;;;;16.97;69.02;100728.97;5012542;27;120621;-72
2022/10/08 01:45:30;;;;;;;;;;;;;;;16.97;69.24;100720.66;5010658;27;119976;-72
2022/10/08 01:48:02;;;;;;;;;;;;;;;16.95;69.10;100719.66;5005279;27;119409;-72
2022/10/08 01:50:31;;;;;;;;;;;;;;;16.94;69.28;100713.34;5000702;28;119933;-72
2022/10/08 01:53:00;;;;;;;;;;;;;;;16.95;69.25;100709.31;5005062;27;119706;-72
2022/10/08 01:55:39;;;;;;;;;;;;;;;16.95;69.37;100703.78;5002881;27;119923;-72
2022/10/08 01:58:07;;;;;;;;;;;;;;;16.93;69.31;100711.06;4998406;28;119789;-72
2022/10/08 02:00:34;;;;;;;;;;;;;;;16.91;69.37;100714.34;5007134;28;120027;-72
2022/10/08 02:03:00;;;;;;;;;;;;;;;16.92;69.30;100720.63;5010996;27;119659;-72
2022/10/08 02:05:28;;;;;;;;;;;;;;;16.92;69.46;100713.09;5000010;28;119859;-72
2022/10/08 02:07:54;;;;;;;;;;;;;;;16.92;69.57;100721.41;5006376;28;119738;-72
2022/10/08 02:10:24;;;;;;;;;;;;;;;16.94;69.64;100718.13;5001856;27;119254;-72
2022/10/08 02:12:49;;;;;;;;;;;;;;;16.94;69.40;100716.13;5002109;28;119366;-72
2022/10/08 02:15:26;;;;;;;;;;;;;;;16.94;69.38;100712.59;4999317;28;120419;-72
2022/10/08 02:18:08;;;;;;;;;;;;;;;16.93;69.30;100711.84;5023614;27;120518;-72
2022/10/08 02:20:50;;;;;;;;;;;;;;;16.92;69.14;100713.09;4999869;28;120262;-72
2022/10/08 02:23:20;;;;;;;;;;;;;;;16.91;69.29;100719.88;4996420;28;119583;-72
2022/10/08 02:25:59;;;;;;;;;;;;;;;16.91;69.27;100700.50;5010527;27;119634;-72
2022/10/08 02:28:28;;;;;;;;;;;;;;;16.92;69.30;100709.56;5011746;27;120046;-72
2022/10/08 02:31:16;;;;;;;;;;;;;;;16.91;69.23;100708.03;5019410;27;119777;-72
2022/10/08 02:33:44;;;;;;;;;;;;;;;16.90;69.35;100709.28;5002152;27;120134;-72
2022/10/08 02:36:12;;;;;;;;;;;;;;;16.90;69.35;100695.44;5010709;27;120829;-72
2022/10/08 02:38:45;;;;;;;;;;;;;;;16.80;69.24;100686.56;5001549;28;119723;-72
2022/10/08 02:41:13;;;;;;;;;;;;;;;16.89;69.17;100694.69;5003372;28;119452;-72
2022/10/08 02:43:42;;;;;;;;;;;;;;;16.89;69.19;100686.38;4999806;27;120743;-72
2022/10/08 02:46:16;;;;;;;;;;;;;;;16.89;69.36;100664.22;4991881;28;120073;-72
2022/10/08 02:48:52;;;;;;;;;;;;;;;16.89;69.50;100672.53;5006245;27;119784;-72
2022/10/08 02:51:18;;;;;;;;;;;;;;;16.88;69.32;100674.53;5002431;27;119926;-72
2022/10/08 02:53:48;;;;;;;;;;;;;;;16.87;69.48;100680.56;5001666;27;119941;-72
2022/10/08 02:56:17;;;;;;;;;;;;;;;16.86;69.59;100684.59;5000986;28;119342;-72
2022/10/08 02:58:42;;;;;;;;;;;;;;;16.86;69.42;100679.06;4977973;28;121445;-72
2022/10/08 03:01:11;;;;;;;;;;;;;;;16.85;69.63;100672.00;4998342;28;120186;-72
2022/10/08 03:03:42;;;;;;;;;;;;;;;16.86;69.62;100690.91;4994822;28;119811;-72
2022/10/08 03:06:09;;;;;;;;;;;;;;;16.85;69.88;100694.91;4996285;28;120241;-72
2022/10/08 03:08:37;;;;;;;;;;;;;;;16.86;69.78;100693.66;4994586;28;119889;-72
2022/10/08 03:11:04;;;;;;;;;;;;;;;16.87;69.81;100702.72;5003170;28;119977;-72
2022/10/08 03:13:32;;;;;;;;;;;;;;;16.87;69.85;100697.19;4988962;28;119463;-72
2022/10/08 03:15:58;;;;;;;;;;;;;;;16.87;69.71;100691.66;4995686;28;120727;-72
2022/10/08 03:18:24;;;;;;;;;;;;;;;16.86;69.55;100695.69;5009914;27;122868;-72
2022/10/08 03:20:51;;;;;;;;;;;;;;;16.87;69.71;100691.66;5012545;27;120332;-72
2022/10/08 03:23:17;;;;;;;;;;;;;;;16.87;69.66;100688.88;5002212;28;119728;-72
2022/10/08 03:25:43;;;;;;;;;;;;;;;16.87;69.83;100697.94;5005346;28;120625;-72
2022/10/08 03:28:12;;;;;;;;;;;;;;;16.89;69.73;100694.69;4989298;28;119664;-72
2022/10/08 03:30:38;;;;;;;;;;;;;;;16.86;69.53;100690.91;5001032;28;119903;-72
2022/10/08 03:33:04;;;;;;;;;;;;;;;16.84;69.50;100695.41;5006782;28;120439;-72
2022/10/08 03:35:32;;;;;;;;;;;;;;;16.82;69.57;100695.16;5005364;28;120418;-72
2022/10/08 03:37:58;;;;;;;;;;;;;;;16.77;69.26;100698.63;5005070;28;119983;-72
2022/10/08 03:40:23;;;;;;;;;;;;;;;16.78;69.60;100705.66;4999982;28;119689;-73
2022/10/08 03:42:49;;;;;;;;;;;;;;;16.77;69.79;100704.91;5007624;28;119413;-72
2022/10/08 03:45:15;;;;;;;;;;;;;;;16.77;69.70;100704.91;5005681;28;119960;-72
2022/10/08 03:47:41;;;;;;;;;;;;;;;16.78;69.75;100702.91;5007526;27;119946;-72
2022/10/08 03:50:06;;;;;;;;;;;;;;;16.77;69.89;100709.69;4998357;28;120288;-72
2022/10/08 03:52:32;;;;;;;;;;;;;;;16.77;69.93;100706.91;4999685;28;119928;-72
2022/10/08 03:55:04;;;;;;;;;;;;;;;16.78;69.91;100713.97;5009435;27;120205;-72
2022/10/08 03:57:29;;;;;;;;;;;;;;;16.76;69.72;100710.94;5006389;28;119890;-72
2022/10/08 03:59:55;;;;;;;;;;;;;;;16.75;69.77;100717.75;5019173;27;119682;-72
2022/10/08 04:02:21;;;;;;;;;;;;;;;16.72;69.78;100713.19;5006861;28;120068;-72
2022/10/08 04:04:46;;;;;;;;;;;;;;;16.71;69.97;100714.44;4961668;28;120983;-72
2022/10/08 04:07:12;;;;;;;;;;;;;;;16.69;69.98;100711.41;4999174;27;119582;-73
2022/10/08 04:09:37;;;;;;;;;;;;;;;16.68;70.01;100709.88;5001392;27;120351;-72
2022/10/08 04:12:03;;;;;;;;;;;;;;;16.65;70.05;100710.84;5007098;27;121385;-72
2022/10/08 04:14:28;;;;;;;;;;;;;;;16.62;69.93;100715.34;5011441;27;119947;-72
2022/10/08 04:16:54;;;;;;;;;;;;;;;16.61;70.04;100713.84;5005728;27;120009;-72
2022/10/08 04:19:19;;;;;;;;;;;;;;;16.60;70.12;100717.88;5009862;27;119784;-72
2022/10/08 04:21:45;;;;;;;;;;;;;;;16.57;70.10;100716.84;5009658;27;120025;-72
2022/10/08 04:24:11;;;;;;;;;;;;;;;16.56;70.03;100722.84;5008648;27;119593;-72
2022/10/08 04:26:37;;;;;;;;;;;;;;;16.58;70.25;100723.13;5012358;27;119605;-72
2022/10/08 04:29:07;;;;;;;;;;;;;;;16.56;70.27;100718.09;5007105;27;119594;-72
2022/10/08 04:31:32;;;;;;;;;;;;;;;16.55;70.05;100721.31;4996173;27;120223;-72
2022/10/08 04:33:58;;;;;;;;;;;;;;;16.55;69.92;100724.84;5008540;27;119922;-72
2022/10/08 04:36:24;;;;;;;;;;;;;;;16.55;70.31;100719.31;5002307;27;119843;-72
2022/10/08 04:38:49;;;;;;;;;;;;;;;16.54;70.08;100726.09;5008048;27;120035;-72
2022/10/08 04:41:20;;;;;;;;;;;;;;;16.51;70.02;100718.78;5001667;27;119919;-72
2022/10/08 04:43:46;;;;;;;;;;;;;;;16.48;69.90;100722.53;5004505;27;120459;-72
2022/10/08 04:46:13;;;;;;;;;;;;;;;16.46;69.90;100725.03;4995550;27;120097;-72
2022/10/08 04:48:38;;;;;;;;;;;;;;;16.43;69.69;100736.34;5008569;27;119262;-72
2022/10/08 04:51:05;;;;;;;;;;;;;;;16.40;69.60;100727.00;5001035;27;119463;-72
2022/10/08 04:53:30;;;;;;;;;;;;;;;16.37;69.53;100730.75;5006119;27;120237;-72
2022/10/08 04:55:56;;;;;;;;;;;;;;;16.34;69.72;100722.66;5012008;27;120263;-72
2022/10/08 04:58:23;;;;;;;;;;;;;;;16.32;69.54;100731.44;5014799;27;120883;-72
2022/10/08 05:00:48;;;;;;;;;;;;;;;16.28;69.63;100720.59;5004989;27;119943;-72
2022/10/08 05:03:14;;;;;;;;;;;;;;;16.25;69.51;100726.34;5002600;27;119966;-72
2022/10/08 05:05:40;;;;;;;;;;;;;;;16.21;69.54;100732.09;5009002;27;120002;-72
2022/10/08 05:08:06;;;;;;;;;;;;;;;16.19;69.77;100734.59;5005344;27;119533;-72
2022/10/08 05:10:35;;;;;;;;;;;;;;;16.15;69.79;100739.59;5004091;27;119659;-72
2022/10/08 05:13:03;;;;;;;;;;;;;;;16.14;69.72;100751.16;5008314;27;119719;-72
2022/10/08 05:15:28;;;;;;;;;;;;;;;16.12;70.03;100748.88;5003218;27;120382;-72
2022/10/08 05:17:54;;;;;;;;;;;;;;;16.10;69.61;100759.66;5000750;27;119747;-72
2022/10/08 05:20:20;;;;;;;;;;;;;;;16.08;69.66;100764.13;5009676;27;120004;-72
2022/10/08 05:22:46;;;;;;;;;;;;;;;16.06;69.95;100763.88;5005469;27;119592;-72
2022/10/08 05:25:12;;;;;;;;;;;;;;;16.03;69.67;100776.66;4997099;27;119589;-72
2022/10/08 05:27:37;;;;;;;;;;;;;;;16.01;69.77;100768.09;5009404;27;119394;-72
2022/10/08 05:30:04;;;;;;;;;;;;;;;15.98;69.80;100766.31;5006255;27;120031;-72
2022/10/08 05:32:29;;;;;;;;;;;;;;;15.95;69.57;100773.56;5009355;27;119426;-72
2022/10/08 05:34:55;;;;;;;;;;;;;;;15.96;69.66;100782.63;5006690;27;119483;-72
2022/10/08 05:37:21;;;;;;;;;;;;;;;15.92;69.41;100780.06;5007468;27;120013;-72
2022/10/08 05:39:47;;;;;;;;;;;;;;;15.90;69.39;100779.03;5004929;27;119904;-72
2022/10/08 05:42:12;;;;;;;;;;;;;;;15.88;69.71;100785.06;5008277;27;119950;-72
2022/10/08 05:44:38;;;;;;;;;;;;;;;15.88;69.72;100782.28;5004516;27;120792;-73
2022/10/08 05:47:04;;;;;;;;;;;;;;;15.86;69.54;100779.25;4995988;27;119187;-73
2022/10/08 05:49:30;;;;;;;;;;;;;;;15.85;69.34;100788.00;5002124;27;120073;-73
2022/10/08 05:51:55;;;;;;;;;;;;;;;15.82;69.42;100784.22;5003173;27;119637;-72
2022/10/08 05:54:21;;;;;;;;;;;;;;;15.80;69.42;100786.69;4995297;27;120361;-75
2022/10/08 05:56:47;;;;;;;;;;;;;;;15.79;69.30;100789.94;4981270;27;120339;-74
2022/10/08 05:59:17;;;;;;;;;;;;;;;15.76;69.62;100788.91;5005907;27;120173;-74
2022/10/08 06:01:43;;;;;;;;;;;;;;;15.75;69.19;100794.94;5009062;27;119508;-74
2022/10/08 06:04:12;;;;;;;;;;;;;;;15.73;69.24;100789.88;5000479;27;119762;-74
2022/10/08 06:06:39;;;;;;;;;;;;;;;15.70;69.03;100798.41;4998068;27;119949;-74
2022/10/08 06:09:06;;;;;;;;;;;;;;;15.67;69.05;100802.13;5016174;27;119629;-74
2022/10/08 06:11:32;;;;;;;;;;;;;;;15.64;69.15;100812.91;4986255;28;119490;-73
2022/10/08 06:13:59;;;;;;;;;;;;;;;15.61;68.92;100810.31;5002719;27;119128;-74
2022/10/08 06:16:25;;;;;;;;;;;;;;;15.58;69.03;100814.03;5007516;27;119908;-74
2022/10/08 06:18:51;;;;;;;;;;;;;;;15.56;68.87;100814.50;5008716;27;120013;-74
2022/10/08 06:21:21;;;;;;;;;;;;;;;15.56;68.62;100822.03;5000900;27;119831;-74
2022/10/08 06:23:48;;;;;;;;;;;;;;;15.55;68.75;100821.28;5004488;27;120859;-74
2022/10/08 06:26:14;;;;;;;;;;;;;;;15.55;68.98;100823.28;5010763;27;119491;-74
2022/10/08 06:28:58;;;;;;;;;;;;;;;15.55;68.96;100831.59;5004016;27;120058;-74
2022/10/08 06:31:24;;;;;;;;;;;;;;;15.55;69.20;100842.63;5000616;27;119776;-73
2022/10/08 06:33:49;;;;;;;;;;;;;;;15.55;69.19;100837.88;5006839;27;119601;-74
2022/10/08 06:36:19;;;;;;;;;;;;;;;15.58;69.48;100852.72;5006316;27;119760;-74
2022/10/08 06:38:48;;;;;;;;;;;;;;;15.58;69.47;100853.53;5008785;27;119748;-74
2022/10/08 06:41:14;;;;;;;;;;;;;;;15.60;69.35;100851.03;5000937;27;119715;-74
2022/10/08 06:43:40;;;;;;;;;;;;;;;15.64;69.34;100859.16;5001096;27;119606;-74
2022/10/08 06:46:05;;;;;;;;;;;;;;;15.68;69.63;100851.41;4989932;28;119577;-74
2022/10/08 06:48:46;;;;;;;;;;;;;;;15.73;69.26;100861.78;5010362;27;119669;-74
2022/10/08 06:51:15;;;;;;;;;;;;;;;15.78;69.37;100855.56;4997946;27;123346;-74
2022/10/08 06:53:55;;;;;;;;;;;;;;;15.85;69.48;100862.69;5010299;27;119516;-74
2022/10/08 06:56:22;;;;;;;;;;;;;;;15.82;69.54;100853.34;5013906;27;120538;-74
2022/10/08 06:58:48;;;;;;;;;;;;;;;16.00;69.58;100876.47;4998648;27;119645;-74
2022/10/08 07:01:15;;;;;;;;;;;;;;;16.11;69.65;100868.34;4995714;27;119690;-74
2022/10/08 07:03:41;;;;;;;;;;;;;;;16.23;69.80;100878.28;5006398;27;120533;-74
2022/10/08 07:06:11;;;;;;;;;;;;;;;16.37;69.98;100880.22;5008278;28;120045;-74
2022/10/08 07:08:39;;;;;;;;;;;;;;;16.49;69.52;100875.56;5005739;27;119784;-74
2022/10/08 07:11:05;;;;;;;;;;;;;;;16.57;69.65;100887.75;4996581;27;120330;-74
2022/10/08 07:13:31;;;;;;;;;;;;;;;16.65;69.37;100890.84;5003639;27;119677;-74
2022/10/08 07:16:22;;;;;;;;;;;;;;;16.68;69.07;100893.44;4976973;27;119915;-74
2022/10/08 07:18:48;;;;;;;;;;;;;;;16.70;68.81;100888.16;5014541;27;119732;-74
2022/10/08 07:21:15;;;;;;;;;;;;;;;16.69;68.70;100888.66;4998596;27;119870;-74
2022/10/08 07:23:41;;;;;;;;;;;;;;;16.55;68.41;100882.69;4991174;27;121761;-74
2022/10/08 07:26:08;;;;;;;;;;;;;;;16.62;68.33;100902.91;4998626;27;119495;-74
2022/10/08 07:28:35;;;;;;;;;;;;;;;16.57;68.38;100905.13;4997832;27;120398;-74
2022/10/08 07:31:29;;;;;;;;;;;;;;;16.50;68.07;100900.00;4998668;27;120266;-74
2022/10/08 07:34:06;;;;;;;;;;;;;;;16.44;68.12;100904.72;4994381;27;120059;-74
2022/10/08 07:36:31;;;;;;;;;;;;;;;16.42;68.32;100900.91;4997422;27;122291;-74
2022/10/08 07:39:00;;;;;;;;;;;;;;;16.44;68.32;100899.19;5003247;27;119803;-73
2022/10/08 07:41:27;;;;;;;;;;;;;;;16.47;68.25;100905.75;5000740;27;119625;-74
2022/10/08 07:43:54;;;;;;;;;;;;;;;16.48;68.32;100910.81;5010046;27;120143;-74
2022/10/08 07:46:20;;;;;;;;;;;;;;;16.53;68.18;100912.09;5002569;27;119844;-74
2022/10/08 07:48:46;;;;;;;;;;;;;;;16.58;68.37;100920.50;5003197;27;119441;-74
2022/10/08 07:51:11;;;;;;;;;;;;;;;16.61;68.02;100918.78;4997383;27;120705;-74
2022/10/08 07:53:38;;;;;;;;;;;;;;;16.63;68.28;100918.28;4999295;27;120081;-74
2022/10/08 07:56:04;;;;;;;;;;;;;;;16.64;68.12;100923.34;4997393;27;120531;-74
2022/10/08 07:58:30;;;;;;;;;;;;;;;16.64;68.03;100923.34;5001089;27;120004;-74
2022/10/08 08:00:56;;;;;;;;;;;;;;;16.69;68.25;100924.66;4999900;27;121884;-74
2022/10/08 08:03:22;;;;;;;;;;;;;;;16.78;68.19;100927.28;5001606;27;119547;-73
2022/10/08 08:05:48;;;;;;;;;;;;;;;16.91;68.39;100936.00;4984939;28;119981;-73
2022/10/08 08:08:13;;;;;;;;;;;;;;;17.06;68.61;100931.13;5009387;27;120161;-74
2022/10/08 08:10:39;;;;;;;;;;;;;;;17.27;68.23;100928.25;5001722;27;119910;-73
2022/10/08 08:13:04;;;;;;;;;;;;;;;17.42;67.86;100937.22;5007048;27;120023;-74
2022/10/08 08:15:30;;;;;;;;;;;;;;;17.53;67.12;100940.09;4993281;27;122284;-73
2022/10/08 08:17:58;;;;;;;;;;;;;;;17.52;66.75;100949.66;5001283;27;119642;-73
2022/10/08 08:20:24;;;;;;;;;;;;;;;17.50;66.66;100947.38;5001190;27;119525;-73
2022/10/08 08:22:49;;;;;;;;;;;;;;;17.45;66.22;100952.88;5001499;27;119825;-74
2022/10/08 08:25:15;;;;;;;;;;;;;;;17.38;65.86;100956.09;5001443;27;119971;-73
2022/10/08 08:27:43;;;;;;;;;;;;;;;17.29;65.95;100961.81;4997726;27;119844;-74
2022/10/08 08:30:09;;;;;;;;;;;;;;;17.21;65.52;100963.50;4999896;27;119571;-73
2022/10/08 08:32:56;;;;;;;;;;;;;;;17.15;66.20;100957.91;4974406;28;120328;-73
2022/10/08 08:35:22;;;;;;;;;;;;;;;17.13;66.36;100963.94;5013632;27;120343;-73
2022/10/08 08:37:48;;;;;;;;;;;;;;;17.17;66.49;100967.25;5001842;27;119734;-73
2022/10/08 08:40:13;;;;;;;;;;;;;;;17.20;66.55;100962.72;4999890;27;120197;-73
2022/10/08 08:42:39;;;;;;;;;;;;;;;17.20;66.29;100971.03;5000769;27;121363;-73
2022/10/08 08:45:14;;;;;;;;;;;;;;;17.18;66.19;100977.09;4999842;27;120369;-73
2022/10/08 08:47:41;;;;;;;;;;;;;;;17.17;66.48;100977.56;5002867;27;119936;-73
2022/10/08 08:50:24;;;;;;;;;;;;;;;17.14;66.04;100975.78;4991329;27;119630;-72
2022/10/08 08:52:50;;;;;;;;;;;;;;;17.07;66.10;100976.97;5002151;27;120066;-73
2022/10/08 08:55:17;;;;;;;;;;;;;;;17.06;66.27;100981.00;5001948;27;119847;-73
2022/10/08 08:57:46;;;;;;;;;;;;;;;17.12;66.62;100986.59;5002256;27;120994;-73
2022/10/08 09:00:17;;;;;;;;;;;;;;;17.21;66.50;100986.44;5003164;27;119974;-73
2022/10/08 09:02:51;;;;;;;;;;;;;;;17.25;65.75;100986.97;5001711;27;120179;-73
2022/10/08 09:05:17;;;;;;;;;;;;;;;17.28;64.90;100985.25;4991150;27;119906;-73
2022/10/08 09:07:46;;;;;;;;;;;;;;;17.30;64.50;100991.81;4993315;27;120980;-73
2022/10/08 09:10:15;;;;;;;;;;;;;;;17.28;64.24;100990.78;4991121;27;120584;-73
2022/10/08 09:12:42;;;;;;;;;;;;;;;17.24;63.57;100990.22;5001387;27;120182;-73
2022/10/08 09:15:16;;;;;;;;;;;;;;;17.24;63.73;100996.53;5000598;27;120027;-73
2022/10/08 09:17:43;;;;;;;;;;;;;;;17.29;63.93;101001.41;5000886;27;119926;-73
2022/10/08 09:20:12;;;;;;;;;;;;;;;17.32;63.87;101005.97;4989466;28;120445;-72
2022/10/08 09:22:38;;;;;;;;;;;;;;;17.36;63.57;101000.94;4999486;27;120070;-73
2022/10/08 09:25:10;;;;;;;;;;;;;;;17.38;63.35;101000.47;4999162;27;119654;-73
2022/10/08 09:27:55;;;;;;;;;;;;;;;17.45;63.45;101019.44;5002234;27;119925;-73
2022/10/08 09:30:33;;;;;;;;;;;;;;;17.54;63.29;101018.50;4983716;28;121066;-73
2022/10/08 09:33:01;;;;;;;;;;;;;;;17.64;63.42;101005.97;5001008;27;119971;-73
2022/10/08 09:35:27;;;;;;;;;;;;;;;17.74;63.18;101010.91;4999848;27;119540;-73
2022/10/08 09:37:55;;;;;;;;;;;;;;;17.83;62.83;101018.28;4995731;27;119935;-73
2022/10/08 09:40:25;;;;;;;;;;;;;;;17.90;62.86;101014.28;4999789;27;119817;-73
2022/10/08 09:43:08;;;;;;;;;;;;;;;18.01;62.57;101008.84;4996545;27;120585;-73
2022/10/08 09:45:37;;;;;;;;;;;;;;;18.11;61.65;101024.03;5014829;27;119690;-73
2022/10/08 09:48:15;;;;;;;;;;;;;;;18.18;61.56;101023.56;4999067;27;119892;-73
2022/10/08 09:51:08;;;;;;;;;;;;;;;18.21;61.21;101033.69;5000876;27;119938;-73
2022/10/08 09:53:42;;;;;;;;;;;;;;;18.27;61.14;101017.09;5000320;27;120797;-73
2022/10/08 09:56:09;;;;;;;;;;;;;;;18.34;60.73;101022.16;5002958;27;119721;-73
2022/10/08 09:59:01;;;;;;;;;;;;;;;18.41;60.34;101049.47;5016349;27;120117;-73
2022/10/08 10:01:26;;;;;;;;;;;;;;;18.32;60.13;101053.22;5005160;27;120313;-73
2022/10/08 10:03:59;;;;;;;;;;;;;;;18.19;59.82;101058.41;5002294;27;120417;-73
2022/10/08 10:06:29;;;;;;;;;;;;;;;18.08;59.72;101053.53;5005423;27;119979;-73
2022/10/08 10:09:00;;;;;;;;;;;;;;;17.97;59.56;101049.91;5003995;27;120663;-73
2022/10/08 10:11:34;;;;;;;;;;;;;;;17.81;59.61;101062.41;5004039;27;122018;-73
2022/10/08 10:14:03;;;;;;;;;;;;;;;17.68;59.58;101062.78;5004466;27;119826;-72
2022/10/08 10:16:35;;;;;;;;;;;;;;;17.65;59.71;101060.22;5002880;27;120150;-73
2022/10/08 10:19:03;;;;;;;;;;;;;;;17.63;59.96;101068.25;5003888;27;120465;-73
2022/10/08 10:21:56;;;;;;;;;;;;;;;17.61;60.06;101060.44;4997797;27;120169;-72
2022/10/08 10:24:28;;;;;;;;;;;;;;;17.61;60.02;101065.97;4969301;28;120787;-73
2022/10/08 10:26:55;;;;;;;;;;;;;;;17.61;59.77;101060.44;5009527;27;120162;-73
2022/10/08 10:29:24;;;;;;;;;;;;;;;17.62;60.16;101061.19;5003891;27;119911;-73
2022/10/08 10:31:58;;;;;;;;;;;;;;;17.67;60.33;101058.50;5002565;27;119894;-73
2022/10/08 10:34:28;;;;;;;;;;;;;;;17.75;60.09;101061.59;5003684;27;119574;-73
2022/10/08 10:36:58;;;;;;;;;;;;;;;17.83;60.34;101073.03;5005163;27;120013;-73
2022/10/08 10:39:43;;;;;;;;;;;;;;;17.89;59.43;101071.03;5005628;27;119570;-73
2022/10/08 10:42:34;;;;;;;;;;;;;;;17.94;59.47;101073.09;4995988;27;120002;-73
2022/10/08 10:45:18;;;;;;;;;;;;;;;18.03;58.90;101070.16;4998280;27;119461;-73
2022/10/08 10:47:44;;;;;;;;;;;;;;;18.07;58.72;101063.13;4998488;27;120598;-73
2022/10/08 10:50:13;;;;;;;;;;;;;;;18.07;58.78;101093.66;5022297;27;119814;-73
2022/10/08 10:53:00;;;;;;;;;;;;;;;17.98;57.16;101084.75;5003690;27;120695;-73
2022/10/08 10:55:25;;;;;;;;;;;;;;;17.81;56.88;101078.31;4997771;27;119907;-73
2022/10/08 10:57:59;;;;;;;;;;;;;;;17.65;56.54;101074.84;5002555;27;119746;-72
2022/10/08 11:00:31;;;;;;;;;;;;;;;17.55;56.83;101075.50;5001289;27;122318;-73
2022/10/08 11:02:57;;;;;;;;;;;;;;;17.45;56.93;101080.44;5019129;27;119947;-73
2022/10/08 11:05:24;;;;;;;;;;;;;;;17.45;57.87;101081.19;5002178;27;119924;-73
2022/10/08 11:07:53;;;;;;;;;;;;;;;17.50;58.16;101085.28;5000253;27;119969;-73
2022/10/08 11:10:29;;;;;;;;;;;;;;;17.50;58.73;101068.63;4992432;27;119956;-73
2022/10/08 11:13:32;;;;;;;;;;;;;;;17.58;58.15;101086.38;5001516;27;119662;-72
2022/10/08 11:16:17;;;;;;;;;;;;;;;17.61;58.14;101090.94;5000902;27;119821;-73
2022/10/08 11:18:59;;;;;;;;;;;;;;;17.70;58.37;101079.69;4998318;27;119475;-73
2022/10/08 11:21:28;;;;;;;;;;;;;;;17.84;58.78;101074.53;5013606;27;119842;-73
2022/10/08 11:23:56;;;;;;;;;;;;;;;17.99;58.71;101077.97;5004617;27;119995;-73
2022/10/08 11:26:37;;;;;;;;;;;;;;;18.10;58.37;101066.94;4993031;27;119624;-73
2022/10/08 11:29:12;;;;;;;;;;;;;;;18.23;58.01;101078.41;5020996;27;120433;-73
2022/10/08 11:31:43;;;;;;;;;;;;;;;18.34;56.62;101077.72;5005951;27;120052;-73
2022/10/08 11:34:25;;;;;;;;;;;;;;;18.35;55.11;101085.53;5009289;27;119776;-73
2022/10/08 11:36:56;;;;;;;;;;;;;;;18.36;55.43;101083.53;5022110;27;119806;-72
2022/10/08 11:39:25;;;;;;;;;;;;;;;18.35;55.19;101102.19;4997450;27;119762;-72
2022/10/08 11:41:58;;;;;;;;;;;;;;;18.29;54.78;101093.09;4999615;27;119839;-73
2022/10/08 11:44:25;;;;;;;;;;;;;;;18.22;54.76;101093.53;5008273;27;120081;-73
2022/10/08 11:46:51;;;;;;;;;;;;;;;18.16;55.21;101089.19;5000425;27;119744;-73
2022/10/08 11:49:19;;;;;;;;;;;;;;;18.07;54.83;101092.91;4997140;27;120342;-73
2022/10/08 11:51:45;;;;;;;;;;;;;;;18.00;55.22;101090.59;4998018;27;119680;-73
2022/10/08 11:54:17;;;;;;;;;;;;;;;17.92;54.94;101106.13;4999377;27;120117;-73
2022/10/08 11:56:50;;;;;;;;;;;;;;;17.84;55.09;101107.84;5003095;27;121668;-73
2022/10/08 11:59:46;;;;;;;;;;;;;;;17.75;55.28;101106.00;5004561;27;119602;-73
2022/10/08 12:02:29;;;;;;;;;;;;;;;17.69;56.25;101114.25;4958429;27;122057;-73
2022/10/08 12:04:56;;;;;;;;;;;;;;;17.60;57.04;101111.63;5002600;27;119872;-73
2022/10/08 12:07:27;;;;;;;;;;;;;;;17.59;57.74;101115.63;4999528;27;119871;-73
2022/10/08 12:10:05;;;;;;;;;;;;;;;17.64;58.18;101109.38;4999339;27;120344;-73
2022/10/08 12:12:49;;;;;;;;;;;;;;;17.63;57.73;101116.19;5016965;27;119686;-73
2022/10/08 12:15:24;;;;;;;;;;;;;;;17.58;57.33;101121.69;5002641;27;120047;-73
2022/10/08 12:17:49;;;;;;;;;;;;;;;17.54;57.87;101121.13;5004211;27;120102;-73
2022/10/08 12:20:20;;;;;;;;;;;;;;;17.56;58.28;101124.94;5005968;27;120002;-73
2022/10/08 12:22:58;;;;;;;;;;;;;;;17.64;58.40;101111.41;5022010;27;121041;-73
2022/10/08 12:25:29;;;;;;;;;;;;;;;17.74;58.86;101124.66;4997678;27;119685;-74
2022/10/08 12:28:15;;;;;;;;;;;;;;;17.83;58.49;101114.66;4999037;27;120351;-73
2022/10/08 12:30:50;;;;;;;;;;;;;;;17.90;58.38;101125.31;5003067;27;121887;-73
2022/10/08 12:33:17;;;;;;;;;;;;;;;17.95;57.76;101124.59;5004282;27;119679;-73
2022/10/08 12:36:01;;;;;;;;;;;;;;;17.95;57.43;101111.47;5000611;27;119963;-73
2022/10/08 12:38:30;;;;;;;;;;;;;;;17.92;56.40;101122.78;5000129;27;119465;-73
2022/10/08 12:41:04;;;;;;;;;;;;;;;17.88;56.19;101119.47;5000440;27;119869;-73
2022/10/08 12:43:30;;;;;;;;;;;;;;;17.92;56.65;101120.00;5004539;27;120444;-73